sensor_id;sensor_type;location;lat;lon;timestamp;pressure;altitude;pressure_sealevel;temperature;humidity
58622;BME280;44389;51.578;5.456;2023-04-20T00:01:25;102161.91;;;4.85;47.43
58622;BME280;44389;51.578;5.456;2023-04-20T00:03:51;102157.03;;;4.88;46.58
58622;BME280;44389;51.578;5.456;2023-04-20T00:06:16;102154.38;;;4.99;46.56
58622;BME280;44389;51.578;5.456;2023-04-20T00:08:42;102152.16;;;4.91;48.15
58622;BME280;44389;51.578;5.456;2023-04-20T00:11:08;102153.72;;;4.89;47.93
58622;BME280;44389;51.578;5.456;2023-04-20T00:13:33;102146.81;;;5.00;46.36
58622;BME280;44389;51.578;5.456;2023-04-20T00:15:58;102130.16;;;5.05;45.64
58622;BME280;44389;51.578;5.456;2023-04-20T00:18:24;102134.38;;;4.93;47.50
58622;BME280;44389;51.578;5.456;2023-04-20T00:20:49;102133.94;;;4.99;46.07
58622;BME280;44389;51.578;5.456;2023-04-20T00:23:14;102125.81;;;4.92;46.69
58622;BME280;44389;51.578;5.456;2023-04-20T00:25:40;102119.28;;;4.84;48.00
58622;BME280;44389;51.578;5.456;2023-04-20T00:28:05;102121.03;;;4.85;47.50
58622;BME280;44389;51.578;5.456;2023-04-20T00:30:31;102107.94;;;4.81;46.79
58622;BME280;44389;51.578;5.456;2023-04-20T00:32:56;102116.28;;;4.78;46.73
58622;BME280;44389;51.578;5.456;2023-04-20T00:35:21;102106.59;;;4.74;47.88
58622;BME280;44389;51.578;5.456;2023-04-20T00:37:46;102105.91;;;4.65;48.97
58622;BME280;44389;51.578;5.456;2023-04-20T00:40:12;102109.25;;;4.64;48.33
58622;BME280;44389;51.578;5.456;2023-04-20T00:42:37;102103.44;;;4.54;49.10
58622;BME280;44389;51.578;5.456;2023-04-20T00:45:05;102099.34;;;4.56;48.86
58622;BME280;44389;51.578;5.456;2023-04-20T00:47:30;102104.00;;;4.50;49.42
58622;BME280;44389;51.578;5.456;2023-04-20T00:49:55;102095.47;;;4.50;49.14
58622;BME280;44389;51.578;5.456;2023-04-20T00:52:21;102085.91;;;4.47;49.42
58622;BME280;44389;51.578;5.456;2023-04-20T00:54:47;102076.56;;;4.48;49.50
58622;BME280;44389;51.578;5.456;2023-04-20T00:57:13;102080.16;;;4.50;49.01
58622;BME280;44389;51.578;5.456;2023-04-20T00:59:39;102069.03;;;4.49;49.37
58622;BME280;44389;51.578;5.456;2023-04-20T01:02:05;102064.06;;;4.51;49.21
58622;BME280;44389;51.578;5.456;2023-04-20T01:04:30;102056.81;;;4.45;49.67
58622;BME280;44389;51.578;5.456;2023-04-20T01:06:55;102059.25;;;4.43;49.83
58622;BME280;44389;51.578;5.456;2023-04-20T01:09:21;102058.38;;;4.43;49.82
58622;BME280;44389;51.578;5.456;2023-04-20T01:11:46;102053.94;;;4.40;50.45
58622;BME280;44389;51.578;5.456;2023-04-20T01:14:12;102043.59;;;4.39;50.28
58622;BME280;44389;51.578;5.456;2023-04-20T01:16:37;102041.38;;;4.32;51.06
58622;BME280;44389;51.578;5.456;2023-04-20T01:19:02;102043.03;;;4.31;50.86
58622;BME280;44389;51.578;5.456;2023-04-20T01:21:28;102040.38;;;4.29;50.43
58622;BME280;44389;51.578;5.456;2023-04-20T01:23:53;102029.16;;;4.27;50.18
58622;BME280;44389;51.578;5.456;2023-04-20T01:26:21;102030.13;;;4.18;51.12
58622;BME280;44389;51.578;5.456;2023-04-20T01:28:46;102032.50;;;4.26;50.38
58622;BME280;44389;51.578;5.456;2023-04-20T01:31:12;102021.34;;;4.14;51.75
58622;BME280;44389;51.578;5.456;2023-04-20T01:33:38;102016.81;;;4.10;52.16
58622;BME280;44389;51.578;5.456;2023-04-20T01:36:05;102013.47;;;3.99;53.62
58622;BME280;44389;51.578;5.456;2023-04-20T01:38:32;102017.91;;;4.02;52.38
58622;BME280;44389;51.578;5.456;2023-04-20T01:40:59;102012.66;;;4.00;52.55
58622;BME280;44389;51.578;5.456;2023-04-20T01:43:25;102004.03;;;3.98;53.00
58622;BME280;44389;51.578;5.456;2023-04-20T01:45:51;102003.22;;;3.87;55.60
58622;BME280;44389;51.578;5.456;2023-04-20T01:48:16;101998.00;;;3.86;54.87
58622;BME280;44389;51.578;5.456;2023-04-20T01:50:41;102000.06;;;3.79;55.25
58622;BME280;44389;51.578;5.456;2023-04-20T01:53:07;101989.28;;;3.72;56.15
58622;BME280;44389;51.578;5.456;2023-04-20T01:55:33;101988.06;;;3.67;55.50
58622;BME280;44389;51.578;5.456;2023-04-20T01:57:58;101992.16;;;3.65;55.15
58622;BME280;44389;51.578;5.456;2023-04-20T02:00:23;101985.72;;;3.58;56.10
58622;BME280;44389;51.578;5.456;2023-04-20T02:02:49;101989.59;;;3.53;56.85
58622;BME280;44389;51.578;5.456;2023-04-20T02:05:14;101991.53;;;3.45;56.86
58622;BME280;44389;51.578;5.456;2023-04-20T02:07:39;101974.00;;;3.38;57.87
58622;BME280;44389;51.578;5.456;2023-04-20T02:10:05;101978.59;;;3.32;59.17
58622;BME280;44389;51.578;5.456;2023-04-20T02:12:30;101971.28;;;3.24;59.29
58622;BME280;44389;51.578;5.456;2023-04-20T02:14:56;101964.41;;;3.23;59.24
58622;BME280;44389;51.578;5.456;2023-04-20T02:17:21;101964.19;;;3.20;59.78
58622;BME280;44389;51.578;5.456;2023-04-20T02:19:46;101966.56;;;3.19;60.73
58622;BME280;44389;51.578;5.456;2023-04-20T02:22:12;101959.59;;;3.16;61.50
58622;BME280;44389;51.578;5.456;2023-04-20T02:24:37;101953.19;;;3.21;60.81
58622;BME280;44389;51.578;5.456;2023-04-20T02:27:03;101951.88;;;3.26;61.23
58622;BME280;44389;51.578;5.456;2023-04-20T02:29:28;101952.03;;;3.28;61.13
58622;BME280;44389;51.578;5.456;2023-04-20T02:31:54;101950.91;;;3.24;62.61
58622;BME280;44389;51.578;5.456;2023-04-20T02:34:19;101945.81;;;3.24;62.53
58622;BME280;44389;51.578;5.456;2023-04-20T02:36:44;101947.31;;;3.22;63.88
58622;BME280;44389;51.578;5.456;2023-04-20T02:39:10;101938.56;;;3.41;62.23
58622;BME280;44389;51.578;5.456;2023-04-20T02:41:35;101937.47;;;3.49;62.30
58622;BME280;44389;51.578;5.456;2023-04-20T02:44:00;101932.28;;;3.48;62.83
58622;BME280;44389;51.578;5.456;2023-04-20T02:46:26;101934.56;;;3.44;63.57
58622;BME280;44389;51.578;5.456;2023-04-20T02:48:51;101934.72;;;3.46;63.03
58622;BME280;44389;51.578;5.456;2023-04-20T02:51:16;101928.38;;;3.41;64.80
58622;BME280;44389;51.578;5.456;2023-04-20T02:53:42;101927.34;;;3.39;64.72
58622;BME280;44389;51.578;5.456;2023-04-20T02:56:07;101922.25;;;3.39;64.90
58622;BME280;44389;51.578;5.456;2023-04-20T02:58:32;101924.34;;;3.33;65.67
58622;BME280;44389;51.578;5.456;2023-04-20T03:00:59;101934.78;;;3.36;65.75
58622;BME280;44389;51.578;5.456;2023-04-20T03:03:25;101924.03;;;3.40;66.09
58622;BME280;44389;51.578;5.456;2023-04-20T03:05:51;101921.25;;;3.37;67.03
58622;BME280;44389;51.578;5.456;2023-04-20T03:08:16;101921.72;;;3.43;66.61
58622;BME280;44389;51.578;5.456;2023-04-20T03:10:41;101918.03;;;3.39;67.88
58622;BME280;44389;51.578;5.456;2023-04-20T03:13:07;101918.94;;;3.40;68.53
58622;BME280;44389;51.578;5.456;2023-04-20T03:15:32;101919.28;;;3.44;69.45
58622;BME280;44389;51.578;5.456;2023-04-20T03:17:57;101912.47;;;3.55;68.41
58622;BME280;44389;51.578;5.456;2023-04-20T03:20:23;101907.56;;;3.58;70.55
58622;BME280;44389;51.578;5.456;2023-04-20T03:22:48;101900.72;;;3.69;69.15
58622;BME280;44389;51.578;5.456;2023-04-20T03:25:13;101895.22;;;3.75;69.40
58622;BME280;44389;51.578;5.456;2023-04-20T03:27:38;101900.88;;;3.83;70.20
58622;BME280;44389;51.578;5.456;2023-04-20T03:30:04;101902.75;;;3.85;71.15
58622;BME280;44389;51.578;5.456;2023-04-20T03:32:30;101905.97;;;3.94;69.35
58622;BME280;44389;51.578;5.456;2023-04-20T03:34:56;101899.91;;;4.04;68.92
58622;BME280;44389;51.578;5.456;2023-04-20T03:37:21;101893.59;;;4.11;69.98
58622;BME280;44389;51.578;5.456;2023-04-20T03:39:46;101888.13;;;4.18;70.63
58622;BME280;44389;51.578;5.456;2023-04-20T03:42:12;101885.16;;;4.24;69.48
58622;BME280;44389;51.578;5.456;2023-04-20T03:44:37;101878.81;;;4.31;69.33
58622;BME280;44389;51.578;5.456;2023-04-20T03:47:02;101875.78;;;4.36;68.54
58622;BME280;44389;51.578;5.456;2023-04-20T03:49:28;101886.16;;;4.38;70.26
58622;BME280;44389;51.578;5.456;2023-04-20T03:51:53;101881.25;;;4.41;70.46
58622;BME280;44389;51.578;5.456;2023-04-20T03:54:19;101879.13;;;4.47;69.65
58622;BME280;44389;51.578;5.456;2023-04-20T03:56:44;101869.91;;;4.49;70.48
58622;BME280;44389;51.578;5.456;2023-04-20T03:59:10;101875.44;;;4.55;69.91
58622;BME280;44389;51.578;5.456;2023-04-20T04:01:36;101874.88;;;4.59;69.81
58622;BME280;44389;51.578;5.456;2023-04-20T04:04:04;101877.66;;;4.63;69.70
58622;BME280;44389;51.578;5.456;2023-04-20T04:06:29;101869.44;;;4.67;70.15
58622;BME280;44389;51.578;5.456;2023-04-20T04:08:56;101863.66;;;4.69;70.60
58622;BME280;44389;51.578;5.456;2023-04-20T04:11:21;101862.97;;;4.72;71.02
58622;BME280;44389;51.578;5.456;2023-04-20T04:13:46;101858.06;;;4.75;71.73
58622;BME280;44389;51.578;5.456;2023-04-20T04:16:12;101860.19;;;4.81;71.01
58622;BME280;44389;51.578;5.456;2023-04-20T04:18:42;101863.16;;;4.87;71.26
58622;BME280;44389;51.578;5.456;2023-04-20T04:21:07;101856.47;;;4.89;71.38
58622;BME280;44389;51.578;5.456;2023-04-20T04:23:34;101853.59;;;4.96;70.89
58622;BME280;44389;51.578;5.456;2023-04-20T04:25:59;101848.75;;;5.01;71.09
58622;BME280;44389;51.578;5.456;2023-04-20T04:28:25;101849.78;;;5.03;71.60
58622;BME280;44389;51.578;5.456;2023-04-20T04:30:51;101829.75;;;5.09;71.61
58622;BME280;44389;51.578;5.456;2023-04-20T04:33:16;101830.03;;;5.14;71.81
58622;BME280;44389;51.578;5.456;2023-04-20T04:35:43;101819.28;;;5.18;71.29
58622;BME280;44389;51.578;5.456;2023-04-20T04:38:10;101825.56;;;5.23;71.35
58622;BME280;44389;51.578;5.456;2023-04-20T04:40:36;101821.53;;;5.26;71.82
58622;BME280;44389;51.578;5.456;2023-04-20T04:43:03;101810.72;;;5.31;71.94
58622;BME280;44389;51.578;5.456;2023-04-20T04:45:29;101809.34;;;5.36;71.56
58622;BME280;44389;51.578;5.456;2023-04-20T04:47:54;101814.59;;;5.37;72.32
58622;BME280;44389;51.578;5.456;2023-04-20T04:50:21;101805.44;;;5.41;72.23
58622;BME280;44389;51.578;5.456;2023-04-20T04:52:46;101815.47;;;5.51;71.66
58622;BME280;44389;51.578;5.456;2023-04-20T04:55:11;101808.03;;;5.54;72.16
58622;BME280;44389;51.578;5.456;2023-04-20T04:57:37;101809.22;;;5.59;71.74
58622;BME280;44389;51.578;5.456;2023-04-20T05:00:03;101803.69;;;5.67;71.21
58622;BME280;44389;51.578;5.456;2023-04-20T05:02:32;101805.09;;;5.75;70.42
58622;BME280;44389;51.578;5.456;2023-04-20T05:04:57;101807.94;;;5.80;70.44
58622;BME280;44389;51.578;5.456;2023-04-20T05:07:23;101810.72;;;5.83;70.45
58622;BME280;44389;51.578;5.456;2023-04-20T05:09:48;101808.34;;;5.86;69.65
58622;BME280;44389;51.578;5.456;2023-04-20T05:12:14;101801.56;;;5.86;70.92
58622;BME280;44389;51.578;5.456;2023-04-20T05:14:39;101799.00;;;5.86;70.69
58622;BME280;44389;51.578;5.456;2023-04-20T05:17:05;101801.66;;;5.88;71.38
58622;BME280;44389;51.578;5.456;2023-04-20T05:19:30;101798.41;;;5.90;70.94
58622;BME280;44389;51.578;5.456;2023-04-20T05:21:55;101804.50;;;5.92;71.78
58622;BME280;44389;51.578;5.456;2023-04-20T05:24:21;101797.72;;;5.93;71.56
58622;BME280;44389;51.578;5.456;2023-04-20T05:26:46;101796.03;;;5.93;71.57
58622;BME280;44389;51.578;5.456;2023-04-20T05:29:11;101796.03;;;5.93;72.50
58622;BME280;44389;51.578;5.456;2023-04-20T05:31:37;101794.47;;;5.96;72.17
58622;BME280;44389;51.578;5.456;2023-04-20T05:34:02;101797.25;;;5.99;71.59
58622;BME280;44389;51.578;5.456;2023-04-20T05:36:28;101799.13;;;6.01;70.47
58622;BME280;44389;51.578;5.456;2023-04-20T05:38:54;101789.78;;;6.02;71.31
58622;BME280;44389;51.578;5.456;2023-04-20T05:41:19;101798.41;;;6.04;71.47
58622;BME280;44389;51.578;5.456;2023-04-20T05:43:50;101795.94;;;6.05;72.23
58622;BME280;44389;51.578;5.456;2023-04-20T05:46:15;101786.81;;;6.09;71.73
58622;BME280;44389;51.578;5.456;2023-04-20T05:48:41;101788.66;;;6.12;71.93
58622;BME280;44389;51.578;5.456;2023-04-20T05:51:06;101787.00;;;6.12;71.90
58622;BME280;44389;51.578;5.456;2023-04-20T05:53:31;101782.06;;;6.15;71.05
58622;BME280;44389;51.578;5.456;2023-04-20T05:55:56;101785.63;;;6.17;72.01
58622;BME280;44389;51.578;5.456;2023-04-20T05:58:22;101788.38;;;6.20;72.61
58622;BME280;44389;51.578;5.456;2023-04-20T06:00:47;101781.84;;;6.25;71.35
58622;BME280;44389;51.578;5.456;2023-04-20T06:03:12;101782.03;;;6.29;71.43
58622;BME280;44389;51.578;5.456;2023-04-20T06:05:38;101781.47;;;6.33;70.67
58622;BME280;44389;51.578;5.456;2023-04-20T06:08:03;101779.38;;;6.40;72.22
58622;BME280;44389;51.578;5.456;2023-04-20T06:10:28;101775.97;;;6.55;71.43
58622;BME280;44389;51.578;5.456;2023-04-20T06:12:56;101781.13;;;6.70;71.27
58622;BME280;44389;51.578;5.456;2023-04-20T06:15:22;101782.88;;;6.84;70.82
58622;BME280;44389;51.578;5.456;2023-04-20T06:17:47;101777.28;;;6.91;69.95
58622;BME280;44389;51.578;5.456;2023-04-20T06:20:12;101776.25;;;7.03;69.36
58622;BME280;44389;51.578;5.456;2023-04-20T06:22:42;101781.53;;;7.06;69.09
58622;BME280;44389;51.578;5.456;2023-04-20T06:25:11;101786.06;;;7.10;68.70
58622;BME280;44389;51.578;5.456;2023-04-20T06:27:38;101776.94;;;7.15;68.95
58622;BME280;44389;51.578;5.456;2023-04-20T06:30:04;101777.66;;;7.13;68.33
58622;BME280;44389;51.578;5.456;2023-04-20T06:32:29;101775.81;;;7.10;68.74
58622;BME280;44389;51.578;5.456;2023-04-20T06:34:55;101765.53;;;7.10;69.60
58622;BME280;44389;51.578;5.456;2023-04-20T06:37:20;101757.97;;;7.12;69.52
58622;BME280;44389;51.578;5.456;2023-04-20T06:39:45;101767.16;;;7.08;69.41
58622;BME280;44389;51.578;5.456;2023-04-20T06:42:11;101762.28;;;7.13;69.57
58622;BME280;44389;51.578;5.456;2023-04-20T06:44:36;101762.56;;;7.17;69.49
58622;BME280;44389;51.578;5.456;2023-04-20T06:47:01;101763.78;;;7.24;70.07
58622;BME280;44389;51.578;5.456;2023-04-20T06:49:27;101762.38;;;7.29;71.17
58622;BME280;44389;51.578;5.456;2023-04-20T06:51:52;101766.09;;;7.19;70.25
58622;BME280;44389;51.578;5.456;2023-04-20T06:54:17;101767.53;;;7.14;69.86
58622;BME280;44389;51.578;5.456;2023-04-20T06:56:42;101764.97;;;7.14;70.02
58622;BME280;44389;51.578;5.456;2023-04-20T06:59:08;101753.88;;;7.15;67.49
58622;BME280;44389;51.578;5.456;2023-04-20T07:01:33;101757.59;;;7.20;68.72
58622;BME280;44389;51.578;5.456;2023-04-20T07:03:58;101758.59;;;7.22;68.45
58622;BME280;44389;51.578;5.456;2023-04-20T07:06:24;101765.03;;;7.31;67.28
58622;BME280;44389;51.578;5.456;2023-04-20T07:08:49;101754.25;;;7.36;68.60
58622;BME280;44389;51.578;5.456;2023-04-20T07:11:14;101755.31;;;7.40;68.36
58622;BME280;44389;51.578;5.456;2023-04-20T07:13:40;101758.69;;;7.39;69.32
58622;BME280;44389;51.578;5.456;2023-04-20T07:16:05;101766.72;;;7.30;67.85
58622;BME280;44389;51.578;5.456;2023-04-20T07:18:31;101766.28;;;7.22;68.35
58622;BME280;44389;51.578;5.456;2023-04-20T07:20:56;101769.25;;;7.15;68.32
58622;BME280;44389;51.578;5.456;2023-04-20T07:23:21;101759.19;;;7.03;69.20
58622;BME280;44389;51.578;5.456;2023-04-20T07:25:47;101766.25;;;6.92;69.01
58622;BME280;44389;51.578;5.456;2023-04-20T07:28:12;101768.44;;;6.86;69.20
58622;BME280;44389;51.578;5.456;2023-04-20T07:30:37;101765.78;;;6.85;69.75
58622;BME280;44389;51.578;5.456;2023-04-20T07:33:03;101765.09;;;6.87;69.36
58622;BME280;44389;51.578;5.456;2023-04-20T07:35:28;101762.63;;;6.89;70.45
58622;BME280;44389;51.578;5.456;2023-04-20T07:37:53;101764.84;;;6.98;69.75
58622;BME280;44389;51.578;5.456;2023-04-20T07:40:18;101760.78;;;7.16;69.17
58622;BME280;44389;51.578;5.456;2023-04-20T07:42:44;101762.75;;;7.35;69.04
58622;BME280;44389;51.578;5.456;2023-04-20T07:45:11;101759.47;;;7.53;69.82
58622;BME280;44389;51.578;5.456;2023-04-20T07:47:37;101759.63;;;7.71;70.01
58622;BME280;44389;51.578;5.456;2023-04-20T07:50:03;101751.72;;;7.68;67.28
58622;BME280;44389;51.578;5.456;2023-04-20T07:52:29;101752.88;;;7.73;68.98
58622;BME280;44389;51.578;5.456;2023-04-20T07:54:54;101748.72;;;7.75;69.48
58622;BME280;44389;51.578;5.456;2023-04-20T07:57:24;101763.22;;;7.74;69.31
58622;BME280;44389;51.578;5.456;2023-04-20T07:59:50;101761.19;;;7.69;67.63
58622;BME280;44389;51.578;5.456;2023-04-20T08:02:15;101757.13;;;7.72;67.88
58622;BME280;44389;51.578;5.456;2023-04-20T08:04:41;101755.34;;;7.71;67.80
58622;BME280;44389;51.578;5.456;2023-04-20T08:07:09;101748.44;;;7.85;67.84
58622;BME280;44389;51.578;5.456;2023-04-20T08:09:35;101749.34;;;7.71;67.36
58622;BME280;44389;51.578;5.456;2023-04-20T08:12:00;101751.00;;;7.85;67.77
58622;BME280;44389;51.578;5.456;2023-04-20T08:14:26;101751.94;;;7.87;68.42
58622;BME280;44389;51.578;5.456;2023-04-20T08:16:51;101751.34;;;7.91;68.87
58622;BME280;44389;51.578;5.456;2023-04-20T08:19:16;101751.16;;;7.88;68.43
58622;BME280;44389;51.578;5.456;2023-04-20T08:21:42;101750.81;;;7.82;67.99
58622;BME280;44389;51.578;5.456;2023-04-20T08:24:07;101747.44;;;7.83;68.11
58622;BME280;44389;51.578;5.456;2023-04-20T08:26:33;101738.38;;;8.05;68.61
58622;BME280;44389;51.578;5.456;2023-04-20T08:29:00;101738.69;;;8.11;68.92
58622;BME280;44389;51.578;5.456;2023-04-20T08:31:26;101742.41;;;8.16;67.97
58622;BME280;44389;51.578;5.456;2023-04-20T08:33:51;101740.78;;;8.18;67.91
58622;BME280;44389;51.578;5.456;2023-04-20T08:36:17;101729.91;;;8.22;69.59
58622;BME280;44389;51.578;5.456;2023-04-20T08:38:42;101734.41;;;8.43;68.14
58622;BME280;44389;51.578;5.456;2023-04-20T08:41:08;101724.31;;;8.63;66.32
58622;BME280;44389;51.578;5.456;2023-04-20T08:43:35;101721.56;;;8.60;66.47
58622;BME280;44389;51.578;5.456;2023-04-20T08:46:01;101720.56;;;8.56;66.29
58622;BME280;44389;51.578;5.456;2023-04-20T08:48:34;101719.31;;;8.82;68.28
58622;BME280;44389;51.578;5.456;2023-04-20T08:51:03;101723.78;;;8.86;65.75
58622;BME280;44389;51.578;5.456;2023-04-20T08:53:30;101719.72;;;9.08;65.19
58622;BME280;44389;51.578;5.456;2023-04-20T08:55:55;101712.94;;;9.10;64.32
58622;BME280;44389;51.578;5.456;2023-04-20T08:58:23;101718.84;;;9.26;65.11
58622;BME280;44389;51.578;5.456;2023-04-20T09:00:48;101711.50;;;9.33;63.82
58622;BME280;44389;51.578;5.456;2023-04-20T09:03:14;101708.25;;;9.01;64.06
58622;BME280;44389;51.578;5.456;2023-04-20T09:05:40;101714.75;;;8.77;65.43
58622;BME280;44389;51.578;5.456;2023-04-20T09:08:07;101709.34;;;8.72;66.92
58622;BME280;44389;51.578;5.456;2023-04-20T09:10:43;101714.97;;;8.81;66.91
58622;BME280;44389;51.578;5.456;2023-04-20T09:13:20;101705.00;;;8.87;65.83
58622;BME280;44389;51.578;5.456;2023-04-20T09:15:45;101706.91;;;8.92;66.32
58622;BME280;44389;51.578;5.456;2023-04-20T09:18:12;101711.84;;;9.05;64.82
58622;BME280;44389;51.578;5.456;2023-04-20T09:20:38;101706.09;;;9.27;63.46
58622;BME280;44389;51.578;5.456;2023-04-20T09:23:17;101708.50;;;9.42;63.26
58622;BME280;44389;51.578;5.456;2023-04-20T09:25:46;101706.84;;;9.61;61.29
58622;BME280;44389;51.578;5.456;2023-04-20T09:28:14;101704.41;;;9.46;61.00
58622;BME280;44389;51.578;5.456;2023-04-20T09:30:48;101710.56;;;9.49;62.99
58622;BME280;44389;51.578;5.456;2023-04-20T09:33:15;101697.44;;;9.81;61.96
58622;BME280;44389;51.578;5.456;2023-04-20T09:35:42;101704.31;;;9.80;59.11
58622;BME280;44389;51.578;5.456;2023-04-20T09:38:09;101693.91;;;10.16;60.78
58622;BME280;44389;51.578;5.456;2023-04-20T09:40:35;101698.44;;;10.22;59.41
58622;BME280;44389;51.578;5.456;2023-04-20T09:43:17;101695.81;;;10.20;59.87
58622;BME280;44389;51.578;5.456;2023-04-20T09:45:43;101689.28;;;10.09;59.15
58622;BME280;44389;51.578;5.456;2023-04-20T09:48:10;101699.16;;;9.80;59.67
58622;BME280;44389;51.578;5.456;2023-04-20T09:50:36;101697.53;;;9.64;59.13
58622;BME280;44389;51.578;5.456;2023-04-20T09:53:03;101701.53;;;9.39;59.28
58622;BME280;44389;51.578;5.456;2023-04-20T09:55:30;101699.09;;;9.25;61.53
58622;BME280;44389;51.578;5.456;2023-04-20T09:57:55;101687.50;;;9.33;61.87
58622;BME280;44389;51.578;5.456;2023-04-20T10:00:21;101681.53;;;9.34;62.42
58622;BME280;44389;51.578;5.456;2023-04-20T10:02:46;101682.47;;;9.36;62.80
58622;BME280;44389;51.578;5.456;2023-04-20T10:05:12;101676.59;;;9.56;63.99
58622;BME280;44389;51.578;5.456;2023-04-20T10:07:37;101672.06;;;9.33;62.93
58622;BME280;44389;51.578;5.456;2023-04-20T10:10:14;101674.38;;;9.10;63.20
58622;BME280;44389;51.578;5.456;2023-04-20T10:12:53;101685.31;;;9.06;64.02
58622;BME280;44389;51.578;5.456;2023-04-20T10:15:19;101678.88;;;8.96;62.89
58622;BME280;44389;51.578;5.456;2023-04-20T10:17:48;101677.56;;;9.22;63.57
58622;BME280;44389;51.578;5.456;2023-04-20T10:20:26;101669.63;;;9.36;63.87
58622;BME280;44389;51.578;5.456;2023-04-20T10:22:52;101675.00;;;9.41;66.31
58622;BME280;44389;51.578;5.456;2023-04-20T10:25:21;101672.03;;;9.51;63.74
58622;BME280;44389;51.578;5.456;2023-04-20T10:27:58;101673.88;;;9.53;62.26
58622;BME280;44389;51.578;5.456;2023-04-20T10:30:25;101674.31;;;9.63;61.33
58622;BME280;44389;51.578;5.456;2023-04-20T10:33:11;101669.56;;;9.72;64.76
58622;BME280;44389;51.578;5.456;2023-04-20T10:35:54;101667.66;;;9.86;63.65
58622;BME280;44389;51.578;5.456;2023-04-20T10:38:34;101665.00;;;9.84;63.99
58622;BME280;44389;51.578;5.456;2023-04-20T10:41:17;101658.94;;;10.02;62.27
58622;BME280;44389;51.578;5.456;2023-04-20T10:43:43;101650.38;;;10.03;62.00
58622;BME280;44389;51.578;5.456;2023-04-20T10:46:21;101661.13;;;10.12;61.07
58622;BME280;44389;51.578;5.456;2023-04-20T10:48:57;101650.19;;;10.57;59.58
58622;BME280;44389;51.578;5.456;2023-04-20T10:51:25;101654.28;;;10.94;58.70
58622;BME280;44389;51.578;5.456;2023-04-20T10:56:39;101629.00;;;10.43;58.76
58622;BME280;44389;51.578;5.456;2023-04-20T10:59:09;101640.25;;;11.30;57.18
58622;BME280;44389;51.578;5.456;2023-04-20T11:01:35;101649.81;;;11.32;55.92
58622;BME280;44389;51.578;5.456;2023-04-20T11:04:01;101652.31;;;11.31;55.91
58622;BME280;44389;51.578;5.456;2023-04-20T11:06:27;101649.25;;;11.41;55.34
58622;BME280;44389;51.578;5.456;2023-04-20T11:08:52;101634.47;;;11.82;53.93
58622;BME280;44389;51.578;5.456;2023-04-20T11:11:23;101638.88;;;11.40;54.85
58622;BME280;44389;51.578;5.456;2023-04-20T11:13:49;101644.78;;;10.93;55.79
58622;BME280;44389;51.578;5.456;2023-04-20T11:16:17;101638.38;;;11.04;56.23
58622;BME280;44389;51.578;5.456;2023-04-20T11:18:53;101636.56;;;11.02;57.19
58622;BME280;44389;51.578;5.456;2023-04-20T11:21:19;101619.59;;;11.75;55.43
58622;BME280;44389;51.578;5.456;2023-04-20T11:23:45;101612.13;;;11.60;52.89
58622;BME280;44389;51.578;5.456;2023-04-20T11:26:10;101618.41;;;11.67;53.47
58622;BME280;44389;51.578;5.456;2023-04-20T11:28:36;101615.00;;;11.23;53.04
58622;BME280;44389;51.578;5.456;2023-04-20T11:31:01;101616.00;;;10.82;54.69
58622;BME280;44389;51.578;5.456;2023-04-20T11:33:28;101615.41;;;10.28;57.52
58622;BME280;44389;51.578;5.456;2023-04-20T11:35:57;101612.44;;;9.99;61.24
58622;BME280;44389;51.578;5.456;2023-04-20T11:38:27;101605.31;;;9.74;60.00
58622;BME280;44389;51.578;5.456;2023-04-20T11:40:53;101601.72;;;9.70;59.69
58622;BME280;44389;51.578;5.456;2023-04-20T11:43:18;101599.22;;;9.91;60.85
58622;BME280;44389;51.578;5.456;2023-04-20T11:45:43;101598.06;;;10.43;61.17
58622;BME280;44389;51.578;5.456;2023-04-20T11:48:08;101590.22;;;10.82;56.96
58622;BME280;44389;51.578;5.456;2023-04-20T11:50:34;101591.53;;;10.94;55.84
58622;BME280;44389;51.578;5.456;2023-04-20T11:53:00;101589.56;;;11.09;56.80
58622;BME280;44389;51.578;5.456;2023-04-20T11:55:26;101591.22;;;10.86;55.49
58622;BME280;44389;51.578;5.456;2023-04-20T11:57:51;101593.47;;;10.36;58.57
58622;BME280;44389;51.578;5.456;2023-04-20T12:00:17;101604.41;;;9.73;65.80
58622;BME280;44389;51.578;5.456;2023-04-20T12:02:43;101613.31;;;9.06;68.15
58622;BME280;44389;51.578;5.456;2023-04-20T12:05:08;101615.75;;;8.50;73.68
58622;BME280;44389;51.578;5.456;2023-04-20T12:07:35;101614.25;;;8.04;76.16
58622;BME280;44389;51.578;5.456;2023-04-20T12:10:00;101610.22;;;7.77;79.77
58622;BME280;44389;51.578;5.456;2023-04-20T12:12:25;101612.84;;;7.62;80.33
58622;BME280;44389;51.578;5.456;2023-04-20T12:14:51;101611.72;;;7.56;82.55
58622;BME280;44389;51.578;5.456;2023-04-20T12:17:16;101621.03;;;7.54;83.79
58622;BME280;44389;51.578;5.456;2023-04-20T12:19:41;101612.72;;;7.44;84.07
58622;BME280;44389;51.578;5.456;2023-04-20T12:22:06;101618.56;;;7.41;86.67
58622;BME280;44389;51.578;5.456;2023-04-20T12:24:32;101612.06;;;7.79;87.46
58622;BME280;44389;51.578;5.456;2023-04-20T12:26:57;101617.84;;;8.24;88.94
58622;BME280;44389;51.578;5.456;2023-04-20T12:29:23;101608.06;;;8.50;87.61
58622;BME280;44389;51.578;5.456;2023-04-20T12:31:48;101603.69;;;8.84;85.86
58622;BME280;44389;51.578;5.456;2023-04-20T12:34:13;101586.56;;;9.38;85.83
58622;BME280;44389;51.578;5.456;2023-04-20T12:36:39;101592.28;;;10.70;85.09
58622;BME280;44389;51.578;5.456;2023-04-20T12:39:04;101582.41;;;12.70;71.35
58622;BME280;44389;51.578;5.456;2023-04-20T12:41:29;101581.09;;;13.68;64.57
58622;BME280;44389;51.578;5.456;2023-04-20T12:43:55;101570.75;;;14.65;57.94
58622;BME280;44389;51.578;5.456;2023-04-20T12:46:20;101572.84;;;14.82;54.70
58622;BME280;44389;51.578;5.456;2023-04-20T12:48:46;101588.44;;;15.20;53.05
58622;BME280;44389;51.578;5.456;2023-04-20T12:51:12;101576.78;;;15.84;49.07
58622;BME280;44389;51.578;5.456;2023-04-20T12:53:37;101569.56;;;16.67;49.11
58622;BME280;44389;51.578;5.456;2023-04-20T12:56:03;101563.84;;;16.88;46.56
58622;BME280;44389;51.578;5.456;2023-04-20T12:58:28;101564.63;;;16.30;44.67